Pagrindinis puslapis
METAR-TAF:

METAR-TAF

Oro uostai :

Kodiak, Aliaska, Jungtinės Amerikos Valstijos

platuma: 57-45N, ilguma: 152-30W, Aukštis: 22 m

Dabartinis oras

Ataskaita buvo paskelbta 33 minutes, ne 23:16 UTC
Vėjas 13 kt iš Vakarų/Šiaurės Vakarų su gūsio iki 22 kt
Temperatūra 8°C
Drėgmė 71%
Slėgis 992 hPa
Matomumas: 16.1 km
Mažai debesys ne aukštis 2300 ft
Su prošvaistėmis ne aukštis 3300 ft
Apsiniaukę ne aukštis 4100 ft

METAR: PADQ 232316Z 30013G22KT 10SM FEW023 BKN033 OVC041 08/03 A2929

Laikas: 15:49 (23:49 UTC)

Prognozė

Ataskaita buvo paskelbta 8 minutes, ne 23:41 UTC
Prognozė galioja nuo 24 metu 00 UTC su 24 metu 24 UTC
Vėjas 15 kt iš Vakarų/Šiaurės Vakarų su gūsio iki 25 kt
Matomumas: 10 km
Išsisklaidę debesys ne aukštis 3500 ft
Nuo 24 metu 0400 UTC
Vėjas 20 kt iš Vakarų/Šiaurės Vakarų su gūsio iki 30 kt
Matomumas: 10 km
Mažai debesys ne aukštis 5000 ft

TAF: PADQ 232341Z 2400/2424 30015G25KT P6SM SCT035 FM240400 29020G30KT P6SM FEW050

Orai ataskaitas ir orų prognozės (METAR, TAF).

turimą stotys yra geltonos ir raudonos taškus žemėlapyje.

Perkelti pele per norėdami pamatyti stoties vardą.

Tada spustelėkite, norėdami matyti oro stebėjimo ir prognozės.

Norėdami pakeisti žemėlapį: spustelėkite ant žalios mygtukų su juodo kryžiaus žemyn,; žalią mygtuką su brūkšneliu, jei norite nutolinti; arba žalių rodyklių gretimoms žemėlapius.


METAR-TAF: